sensor_id;sensor_type;location;lat;lon;timestamp;P1;durP1;ratioP1;P2;durP2;ratioP2
21330;SDS011;10824;51.632;4.950;2023-10-13T00:02:03;3.55;;;1.85;;
21330;SDS011;10824;51.632;4.950;2023-10-13T00:04:34;3.40;;;1.20;;
21330;SDS011;10824;51.632;4.950;2023-10-13T00:07:06;5.25;;;1.35;;
21330;SDS011;10824;51.632;4.950;2023-10-13T00:09:36;3.72;;;1.67;;
21330;SDS011;10824;51.632;4.950;2023-10-13T00:12:07;5.57;;;1.35;;
21330;SDS011;10824;51.632;4.950;2023-10-13T00:14:40;4.45;;;1.70;;
21330;SDS011;10824;51.632;4.950;2023-10-13T00:17:08;4.55;;;1.80;;
21330;SDS011;10824;51.632;4.950;2023-10-13T00:19:42;2.58;;;1.90;;
21330;SDS011;10824;51.632;4.950;2023-10-13T00:22:19;2.10;;;1.38;;
21330;SDS011;10824;51.632;4.950;2023-10-13T00:24:46;3.85;;;1.75;;
21330;SDS011;10824;51.632;4.950;2023-10-13T00:27:15;2.47;;;1.30;;
21330;SDS011;10824;51.632;4.950;2023-10-13T00:30:06;4.35;;;1.90;;
21330;SDS011;10824;51.632;4.950;2023-10-13T00:32:51;3.95;;;2.40;;
21330;SDS011;10824;51.632;4.950;2023-10-13T00:35:23;3.25;;;1.42;;
21330;SDS011;10824;51.632;4.950;2023-10-13T00:37:52;8.48;;;1.55;;
21330;SDS011;10824;51.632;4.950;2023-10-13T00:40:21;3.58;;;2.13;;
21330;SDS011;10824;51.632;4.950;2023-10-13T00:42:59;3.10;;;1.95;;
21330;SDS011;10824;51.632;4.950;2023-10-13T00:45:49;5.60;;;1.60;;
21330;SDS011;10824;51.632;4.950;2023-10-13T00:48:24;6.75;;;3.00;;
21330;SDS011;10824;51.632;4.950;2023-10-13T00:53:24;1.88;;;1.00;;
21330;SDS011;10824;51.632;4.950;2023-10-13T00:55:52;2.95;;;1.58;;
21330;SDS011;10824;51.632;4.950;2023-10-13T00:58:22;4.30;;;1.42;;
21330;SDS011;10824;51.632;4.950;2023-10-13T01:00:51;5.75;;;2.40;;
21330;SDS011;10824;51.632;4.950;2023-10-13T01:05:54;2.50;;;1.35;;
21330;SDS011;10824;51.632;4.950;2023-10-13T01:11:01;3.20;;;1.42;;
21330;SDS011;10824;51.632;4.950;2023-10-13T01:13:28;2.13;;;1.20;;
21330;SDS011;10824;51.632;4.950;2023-10-13T01:15:57;8.82;;;2.13;;
21330;SDS011;10824;51.632;4.950;2023-10-13T01:18:25;2.08;;;1.48;;
21330;SDS011;10824;51.632;4.950;2023-10-13T01:20:54;5.25;;;2.20;;
21330;SDS011;10824;51.632;4.950;2023-10-13T01:23:26;5.95;;;2.10;;
21330;SDS011;10824;51.632;4.950;2023-10-13T01:25:55;3.45;;;1.92;;
21330;SDS011;10824;51.632;4.950;2023-10-13T01:28:25;3.78;;;1.88;;
21330;SDS011;10824;51.632;4.950;2023-10-13T01:30:52;5.60;;;1.67;;
21330;SDS011;10824;51.632;4.950;2023-10-13T01:33:19;5.88;;;2.38;;
21330;SDS011;10824;51.632;4.950;2023-10-13T01:35:57;4.03;;;1.60;;
21330;SDS011;10824;51.632;4.950;2023-10-13T01:38:28;3.42;;;1.40;;
21330;SDS011;10824;51.632;4.950;2023-10-13T01:40:59;2.55;;;1.60;;
21330;SDS011;10824;51.632;4.950;2023-10-13T01:43:27;2.03;;;1.35;;
21330;SDS011;10824;51.632;4.950;2023-10-13T01:45:55;3.20;;;2.25;;
21330;SDS011;10824;51.632;4.950;2023-10-13T01:48:22;5.72;;;2.25;;
21330;SDS011;10824;51.632;4.950;2023-10-13T01:50:49;1.25;;;1.08;;
21330;SDS011;10824;51.632;4.950;2023-10-13T01:53:22;7.60;;;1.98;;
21330;SDS011;10824;51.632;4.950;2023-10-13T01:55:50;4.22;;;1.20;;
21330;SDS011;10824;51.632;4.950;2023-10-13T01:58:17;2.42;;;1.10;;
21330;SDS011;10824;51.632;4.950;2023-10-13T02:00:50;3.90;;;1.50;;
21330;SDS011;10824;51.632;4.950;2023-10-13T02:03:18;2.80;;;1.20;;
21330;SDS011;10824;51.632;4.950;2023-10-13T02:05:46;3.60;;;1.10;;
21330;SDS011;10824;51.632;4.950;2023-10-13T02:10:50;2.38;;;0.98;;
21330;SDS011;10824;51.632;4.950;2023-10-13T02:13:24;7.75;;;2.80;;
21330;SDS011;10824;51.632;4.950;2023-10-13T02:15:56;3.47;;;1.33;;
21330;SDS011;10824;51.632;4.950;2023-10-13T02:18:24;3.33;;;1.13;;
21330;SDS011;10824;51.632;4.950;2023-10-13T02:21:01;3.10;;;1.48;;
21330;SDS011;10824;51.632;4.950;2023-10-13T02:23:31;2.50;;;1.13;;
21330;SDS011;10824;51.632;4.950;2023-10-13T02:26:01;3.35;;;1.63;;
21330;SDS011;10824;51.632;4.950;2023-10-13T02:28:37;2.60;;;1.65;;
21330;SDS011;10824;51.632;4.950;2023-10-13T02:31:05;3.67;;;1.42;;
21330;SDS011;10824;51.632;4.950;2023-10-13T02:33:33;6.47;;;2.53;;
21330;SDS011;10824;51.632;4.950;2023-10-13T02:36:02;2.47;;;1.63;;
21330;SDS011;10824;51.632;4.950;2023-10-13T02:38:32;7.70;;;3.53;;
21330;SDS011;10824;51.632;4.950;2023-10-13T02:41:12;1.42;;;1.15;;
21330;SDS011;10824;51.632;4.950;2023-10-13T02:43:47;2.90;;;1.48;;
21330;SDS011;10824;51.632;4.950;2023-10-13T02:46:14;12.95;;;3.17;;
21330;SDS011;10824;51.632;4.950;2023-10-13T02:48:42;2.50;;;1.92;;
21330;SDS011;10824;51.632;4.950;2023-10-13T02:51:12;4.50;;;1.35;;
21330;SDS011;10824;51.632;4.950;2023-10-13T02:53:48;8.27;;;1.88;;
21330;SDS011;10824;51.632;4.950;2023-10-13T02:56:19;5.22;;;1.92;;
21330;SDS011;10824;51.632;4.950;2023-10-13T03:01:32;2.33;;;1.38;;
21330;SDS011;10824;51.632;4.950;2023-10-13T03:04:02;2.47;;;1.30;;
21330;SDS011;10824;51.632;4.950;2023-10-13T03:06:35;5.57;;;2.13;;
21330;SDS011;10824;51.632;4.950;2023-10-13T03:09:07;2.40;;;1.92;;
21330;SDS011;10824;51.632;4.950;2023-10-13T03:11:45;5.60;;;1.80;;
21330;SDS011;10824;51.632;4.950;2023-10-13T03:14:18;3.25;;;1.40;;
21330;SDS011;10824;51.632;4.950;2023-10-13T03:16:59;4.90;;;1.45;;
21330;SDS011;10824;51.632;4.950;2023-10-13T03:19:44;4.45;;;2.20;;
21330;SDS011;10824;51.632;4.950;2023-10-13T03:22:18;4.38;;;1.70;;
21330;SDS011;10824;51.632;4.950;2023-10-13T03:24:57;4.55;;;2.17;;
21330;SDS011;10824;51.632;4.950;2023-10-13T03:27:34;3.00;;;1.88;;
21330;SDS011;10824;51.632;4.950;2023-10-13T03:30:21;2.80;;;1.70;;
21330;SDS011;10824;51.632;4.950;2023-10-13T03:32:56;3.15;;;1.73;;
21330;SDS011;10824;51.632;4.950;2023-10-13T03:35:23;4.88;;;3.20;;
21330;SDS011;10824;51.632;4.950;2023-10-13T03:37:51;4.22;;;2.25;;
21330;SDS011;10824;51.632;4.950;2023-10-13T03:40:18;5.50;;;2.00;;
21330;SDS011;10824;51.632;4.950;2023-10-13T03:42:47;4.90;;;2.15;;
21330;SDS011;10824;51.632;4.950;2023-10-13T03:45:26;6.13;;;2.47;;
21330;SDS011;10824;51.632;4.950;2023-10-13T03:47:53;6.35;;;2.80;;
21330;SDS011;10824;51.632;4.950;2023-10-13T03:50:21;5.75;;;3.15;;
21330;SDS011;10824;51.632;4.950;2023-10-13T03:52:58;4.82;;;2.20;;
21330;SDS011;10824;51.632;4.950;2023-10-13T03:55:27;5.32;;;2.85;;
21330;SDS011;10824;51.632;4.950;2023-10-13T03:57:58;7.65;;;3.10;;
21330;SDS011;10824;51.632;4.950;2023-10-13T04:00:26;9.15;;;4.00;;
21330;SDS011;10824;51.632;4.950;2023-10-13T04:02:54;5.43;;;3.20;;
21330;SDS011;10824;51.632;4.950;2023-10-13T04:05:36;7.15;;;3.20;;
21330;SDS011;10824;51.632;4.950;2023-10-13T04:08:30;9.23;;;4.00;;
21330;SDS011;10824;51.632;4.950;2023-10-13T04:11:17;11.27;;;4.68;;
21330;SDS011;10824;51.632;4.950;2023-10-13T04:14:47;15.73;;;5.85;;
21330;SDS011;10824;51.632;4.950;2023-10-13T04:17:56;9.95;;;4.20;;
21330;SDS011;10824;51.632;4.950;2023-10-13T04:20:52;11.13;;;4.90;;
21330;SDS011;10824;51.632;4.950;2023-10-13T04:23:39;12.73;;;4.97;;
21330;SDS011;10824;51.632;4.950;2023-10-13T04:30:16;8.70;;;4.18;;
21330;SDS011;10824;51.632;4.950;2023-10-13T04:33:31;9.98;;;3.60;;
21330;SDS011;10824;51.632;4.950;2023-10-13T04:36:21;8.10;;;3.30;;
21330;SDS011;10824;51.632;4.950;2023-10-13T04:39:09;6.35;;;3.30;;
21330;SDS011;10824;51.632;4.950;2023-10-13T04:42:29;6.63;;;3.72;;
21330;SDS011;10824;51.632;4.950;2023-10-13T04:46:12;5.97;;;2.95;;
21330;SDS011;10824;51.632;4.950;2023-10-13T04:49:45;9.65;;;3.72;;
21330;SDS011;10824;51.632;4.950;2023-10-13T04:52:54;5.50;;;3.35;;
21330;SDS011;10824;51.632;4.950;2023-10-13T04:55:49;7.90;;;3.30;;
21330;SDS011;10824;51.632;4.950;2023-10-13T05:00:00;8.13;;;4.07;;
21330;SDS011;10824;51.632;4.950;2023-10-13T05:02:52;3.53;;;2.80;;
21330;SDS011;10824;51.632;4.950;2023-10-13T05:37:36;4.40;;;2.20;;
21330;SDS011;10824;51.632;4.950;2023-10-13T05:58:33;3.78;;;2.22;;
21330;SDS011;10824;51.632;4.950;2023-10-13T06:09:35;5.00;;;2.05;;
21330;SDS011;10824;51.632;4.950;2023-10-13T06:21:03;5.10;;;2.03;;
21330;SDS011;10824;51.632;4.950;2023-10-13T06:27:47;10.77;;;3.38;;
21330;SDS011;10824;51.632;4.950;2023-10-13T06:30:59;9.00;;;3.65;;
21330;SDS011;10824;51.632;4.950;2023-10-13T06:33:34;4.10;;;2.17;;
21330;SDS011;10824;51.632;4.950;2023-10-13T06:36:45;5.25;;;1.92;;
21330;SDS011;10824;51.632;4.950;2023-10-13T06:39:29;7.75;;;2.50;;
21330;SDS011;10824;51.632;4.950;2023-10-13T06:42:08;9.35;;;3.47;;
21330;SDS011;10824;51.632;4.950;2023-10-13T06:44:36;6.00;;;2.40;;
21330;SDS011;10824;51.632;4.950;2023-10-13T06:50:54;7.43;;;2.22;;
21330;SDS011;10824;51.632;4.950;2023-10-13T06:58:08;5.88;;;2.13;;
21330;SDS011;10824;51.632;4.950;2023-10-13T07:00:46;5.38;;;3.00;;
21330;SDS011;10824;51.632;4.950;2023-10-13T07:04:42;7.85;;;2.88;;
21330;SDS011;10824;51.632;4.950;2023-10-13T07:10:28;7.35;;;3.38;;
21330;SDS011;10824;51.632;4.950;2023-10-13T07:12:58;6.07;;;2.28;;
21330;SDS011;10824;51.632;4.950;2023-10-13T07:15:42;3.13;;;2.00;;
21330;SDS011;10824;51.632;4.950;2023-10-13T07:18:35;6.65;;;3.08;;
21330;SDS011;10824;51.632;4.950;2023-10-13T07:30:18;8.15;;;2.47;;
21330;SDS011;10824;51.632;4.950;2023-10-13T07:38:18;6.72;;;2.88;;
21330;SDS011;10824;51.632;4.950;2023-10-13T07:40:56;10.27;;;3.47;;
21330;SDS011;10824;51.632;4.950;2023-10-13T07:43:38;7.47;;;3.13;;
21330;SDS011;10824;51.632;4.950;2023-10-13T07:46:14;8.63;;;2.47;;
21330;SDS011;10824;51.632;4.950;2023-10-13T07:56:17;6.28;;;2.30;;
21330;SDS011;10824;51.632;4.950;2023-10-13T08:03:00;4.80;;;2.40;;
21330;SDS011;10824;51.632;4.950;2023-10-13T08:06:35;6.18;;;2.03;;
21330;SDS011;10824;51.632;4.950;2023-10-13T08:09:09;9.95;;;3.03;;
21330;SDS011;10824;51.632;4.950;2023-10-13T08:12:07;6.45;;;2.03;;
21330;SDS011;10824;51.632;4.950;2023-10-13T08:14:56;10.30;;;2.53;;
21330;SDS011;10824;51.632;4.950;2023-10-13T08:17:51;3.88;;;1.95;;
21330;SDS011;10824;51.632;4.950;2023-10-13T08:20:22;14.30;;;2.88;;
21330;SDS011;10824;51.632;4.950;2023-10-13T08:23:11;6.18;;;1.65;;
21330;SDS011;10824;51.632;4.950;2023-10-13T08:25:46;9.43;;;1.83;;
21330;SDS011;10824;51.632;4.950;2023-10-13T08:28:36;4.30;;;2.45;;
21330;SDS011;10824;51.632;4.950;2023-10-13T08:31:23;6.57;;;2.72;;
21330;SDS011;10824;51.632;4.950;2023-10-13T08:33:52;5.95;;;1.98;;
21330;SDS011;10824;51.632;4.950;2023-10-13T08:36:34;11.10;;;2.35;;
21330;SDS011;10824;51.632;4.950;2023-10-13T08:39:04;3.78;;;1.90;;
21330;SDS011;10824;51.632;4.950;2023-10-13T08:41:51;8.85;;;3.35;;
21330;SDS011;10824;51.632;4.950;2023-10-13T08:44:42;7.60;;;2.45;;
21330;SDS011;10824;51.632;4.950;2023-10-13T08:47:18;9.52;;;2.92;;
21330;SDS011;10824;51.632;4.950;2023-10-13T08:49:51;7.32;;;1.77;;
21330;SDS011;10824;51.632;4.950;2023-10-13T08:52:37;5.57;;;2.15;;
21330;SDS011;10824;51.632;4.950;2023-10-13T08:55:13;8.95;;;2.60;;
21330;SDS011;10824;51.632;4.950;2023-10-13T08:58:00;5.45;;;2.05;;
21330;SDS011;10824;51.632;4.950;2023-10-13T09:00:44;6.05;;;2.35;;
21330;SDS011;10824;51.632;4.950;2023-10-13T09:03:23;6.97;;;2.78;;
21330;SDS011;10824;51.632;4.950;2023-10-13T09:05:56;6.65;;;1.70;;
21330;SDS011;10824;51.632;4.950;2023-10-13T09:11:14;7.53;;;2.67;;
21330;SDS011;10824;51.632;4.950;2023-10-13T09:13:49;7.10;;;1.80;;
21330;SDS011;10824;51.632;4.950;2023-10-13T09:16:29;9.05;;;2.97;;
21330;SDS011;10824;51.632;4.950;2023-10-13T09:19:44;12.68;;;3.67;;
21330;SDS011;10824;51.632;4.950;2023-10-13T09:22:42;8.30;;;2.78;;
21330;SDS011;10824;51.632;4.950;2023-10-13T09:25:17;8.23;;;3.13;;
21330;SDS011;10824;51.632;4.950;2023-10-13T09:27:49;9.38;;;3.13;;
21330;SDS011;10824;51.632;4.950;2023-10-13T09:31:10;6.38;;;3.50;;
21330;SDS011;10824;51.632;4.950;2023-10-13T09:33:47;8.93;;;4.85;;
21330;SDS011;10824;51.632;4.950;2023-10-13T09:36:33;12.63;;;3.65;;
21330;SDS011;10824;51.632;4.950;2023-10-13T09:40:07;5.60;;;2.13;;
21330;SDS011;10824;51.632;4.950;2023-10-13T09:42:59;5.28;;;2.35;;
21330;SDS011;10824;51.632;4.950;2023-10-13T09:46:18;6.28;;;2.33;;
21330;SDS011;10824;51.632;4.950;2023-10-13T09:48:54;8.75;;;2.97;;
21330;SDS011;10824;51.632;4.950;2023-10-13T09:52:09;8.60;;;1.90;;
21330;SDS011;10824;51.632;4.950;2023-10-13T09:59:09;6.32;;;2.17;;
21330;SDS011;10824;51.632;4.950;2023-10-13T10:02:46;16.43;;;4.27;;
21330;SDS011;10824;51.632;4.950;2023-10-13T10:10:20;7.03;;;3.63;;
21330;SDS011;10824;51.632;4.950;2023-10-13T10:12:59;10.43;;;2.38;;
21330;SDS011;10824;51.632;4.950;2023-10-13T10:15:37;9.55;;;3.70;;
21330;SDS011;10824;51.632;4.950;2023-10-13T10:18:21;13.73;;;2.30;;
21330;SDS011;10824;51.632;4.950;2023-10-13T10:20:49;7.38;;;2.83;;
21330;SDS011;10824;51.632;4.950;2023-10-13T10:23:25;8.73;;;3.35;;
21330;SDS011;10824;51.632;4.950;2023-10-13T10:26:14;8.13;;;3.00;;
21330;SDS011;10824;51.632;4.950;2023-10-13T10:28:46;6.55;;;2.92;;
21330;SDS011;10824;51.632;4.950;2023-10-13T10:31:15;9.07;;;2.40;;
21330;SDS011;10824;51.632;4.950;2023-10-13T10:33:45;9.65;;;3.47;;
21330;SDS011;10824;51.632;4.950;2023-10-13T10:36:28;9.05;;;2.55;;
21330;SDS011;10824;51.632;4.950;2023-10-13T10:38:58;6.55;;;2.72;;
21330;SDS011;10824;51.632;4.950;2023-10-13T10:44:42;6.00;;;2.15;;
21330;SDS011;10824;51.632;4.950;2023-10-13T10:47:15;10.57;;;2.13;;
21330;SDS011;10824;51.632;4.950;2023-10-13T10:50:27;7.70;;;2.30;;
21330;SDS011;10824;51.632;4.950;2023-10-13T10:53:06;6.13;;;2.22;;
21330;SDS011;10824;51.632;4.950;2023-10-13T10:56:28;7.53;;;2.72;;
21330;SDS011;10824;51.632;4.950;2023-10-13T10:59:02;5.88;;;2.20;;
21330;SDS011;10824;51.632;4.950;2023-10-13T11:01:31;14.82;;;3.00;;
21330;SDS011;10824;51.632;4.950;2023-10-13T11:04:07;10.88;;;3.10;;
21330;SDS011;10824;51.632;4.950;2023-10-13T11:06:55;12.50;;;3.13;;
21330;SDS011;10824;51.632;4.950;2023-10-13T11:09:25;13.35;;;3.40;;
21330;SDS011;10824;51.632;4.950;2023-10-13T11:12:13;6.85;;;3.08;;
21330;SDS011;10824;51.632;4.950;2023-10-13T11:14:42;9.30;;;1.90;;
21330;SDS011;10824;51.632;4.950;2023-10-13T11:17:30;17.73;;;3.35;;
21330;SDS011;10824;51.632;4.950;2023-10-13T11:20:12;15.32;;;3.65;;
21330;SDS011;10824;51.632;4.950;2023-10-13T11:23:10;10.35;;;3.25;;
21330;SDS011;10824;51.632;4.950;2023-10-13T11:25:38;10.48;;;2.67;;
21330;SDS011;10824;51.632;4.950;2023-10-13T11:28:15;5.93;;;2.10;;
21330;SDS011;10824;51.632;4.950;2023-10-13T11:30:44;5.60;;;2.40;;
21330;SDS011;10824;51.632;4.950;2023-10-13T11:33:17;10.65;;;4.18;;
21330;SDS011;10824;51.632;4.950;2023-10-13T11:35:49;14.23;;;3.15;;
21330;SDS011;10824;51.632;4.950;2023-10-13T11:46:13;8.63;;;3.03;;
21330;SDS011;10824;51.632;4.950;2023-10-13T11:56:22;10.95;;;3.05;;
21330;SDS011;10824;51.632;4.950;2023-10-13T12:06:54;11.80;;;3.40;;
21330;SDS011;10824;51.632;4.950;2023-10-13T12:09:41;13.77;;;2.60;;
21330;SDS011;10824;51.632;4.950;2023-10-13T12:14:50;5.55;;;2.30;;
21330;SDS011;10824;51.632;4.950;2023-10-13T12:18:40;9.75;;;3.15;;
21330;SDS011;10824;51.632;4.950;2023-10-13T12:21:13;8.20;;;2.47;;
21330;SDS011;10824;51.632;4.950;2023-10-13T12:23:46;17.90;;;2.70;;
21330;SDS011;10824;51.632;4.950;2023-10-13T12:43:11;10.02;;;2.70;;
21330;SDS011;10824;51.632;4.950;2023-10-13T12:55:32;9.90;;;3.85;;
21330;SDS011;10824;51.632;4.950;2023-10-13T13:04:05;10.27;;;3.67;;
21330;SDS011;10824;51.632;4.950;2023-10-13T13:06:25;7.88;;;2.75;;
21330;SDS011;10824;51.632;4.950;2023-10-13T13:12:57;6.22;;;2.95;;
21330;SDS011;10824;51.632;4.950;2023-10-13T13:24:04;9.75;;;2.28;;
21330;SDS011;10824;51.632;4.950;2023-10-13T13:26:59;5.78;;;1.75;;
21330;SDS011;10824;51.632;4.950;2023-10-13T13:31:01;5.53;;;2.00;;
21330;SDS011;10824;51.632;4.950;2023-10-13T13:34:08;12.68;;;3.25;;
21330;SDS011;10824;51.632;4.950;2023-10-13T14:31:26;8.57;;;2.70;;
21330;SDS011;10824;51.632;4.950;2023-10-13T14:50:48;4.07;;;1.90;;
21330;SDS011;10824;51.632;4.950;2023-10-13T15:24:42;4.47;;;2.10;;
21330;SDS011;10824;51.632;4.950;2023-10-13T15:43:37;8.10;;;2.40;;
21330;SDS011;10824;51.632;4.950;2023-10-13T15:46:24;6.43;;;2.15;;
21330;SDS011;10824;51.632;4.950;2023-10-13T15:48:56;12.32;;;2.83;;
21330;SDS011;10824;51.632;4.950;2023-10-13T15:51:40;4.75;;;3.00;;
21330;SDS011;10824;51.632;4.950;2023-10-13T15:54:23;5.28;;;1.92;;
21330;SDS011;10824;51.632;4.950;2023-10-13T15:56:51;8.43;;;2.58;;
21330;SDS011;10824;51.632;4.950;2023-10-13T15:59:18;8.30;;;2.22;;
21330;SDS011;10824;51.632;4.950;2023-10-13T16:01:56;19.35;;;5.72;;
21330;SDS011;10824;51.632;4.950;2023-10-13T16:05:04;7.32;;;2.30;;
21330;SDS011;10824;51.632;4.950;2023-10-13T16:08:43;10.05;;;2.80;;
21330;SDS011;10824;51.632;4.950;2023-10-13T16:11:22;6.28;;;2.42;;
21330;SDS011;10824;51.632;4.950;2023-10-13T16:16:51;12.85;;;3.55;;
21330;SDS011;10824;51.632;4.950;2023-10-13T16:23:19;4.68;;;2.42;;
21330;SDS011;10824;51.632;4.950;2023-10-13T16:26:59;3.38;;;1.80;;
21330;SDS011;10824;51.632;4.950;2023-10-13T16:29:26;5.47;;;2.42;;
21330;SDS011;10824;51.632;4.950;2023-10-13T16:32:20;12.48;;;3.33;;
21330;SDS011;10824;51.632;4.950;2023-10-13T16:34:53;7.00;;;1.80;;
21330;SDS011;10824;51.632;4.950;2023-10-13T16:42:01;5.22;;;2.25;;
21330;SDS011;10824;51.632;4.950;2023-10-13T17:13:59;8.95;;;2.90;;
21330;SDS011;10824;51.632;4.950;2023-10-13T17:21:11;8.43;;;2.30;;
21330;SDS011;10824;51.632;4.950;2023-10-13T18:42:29;7.07;;;3.28;;
21330;SDS011;10824;51.632;4.950;2023-10-13T18:46:24;11.93;;;3.72;;
21330;SDS011;10824;51.632;4.950;2023-10-13T19:05:15;18.02;;;3.92;;
21330;SDS011;10824;51.632;4.950;2023-10-13T19:08:38;9.75;;;3.95;;
21330;SDS011;10824;51.632;4.950;2023-10-13T19:11:54;12.10;;;3.65;;
21330;SDS011;10824;51.632;4.950;2023-10-13T19:14:53;8.07;;;3.67;;
21330;SDS011;10824;51.632;4.950;2023-10-13T19:17:29;11.10;;;4.32;;
21330;SDS011;10824;51.632;4.950;2023-10-13T19:20:22;8.27;;;3.22;;
21330;SDS011;10824;51.632;4.950;2023-10-13T19:23:32;8.93;;;3.53;;
21330;SDS011;10824;51.632;4.950;2023-10-13T19:26:14;10.10;;;3.72;;
21330;SDS011;10824;51.632;4.950;2023-10-13T19:29:02;15.02;;;4.13;;
21330;SDS011;10824;51.632;4.950;2023-10-13T19:31:55;10.82;;;4.05;;
21330;SDS011;10824;51.632;4.950;2023-10-13T19:34:47;7.18;;;2.80;;
21330;SDS011;10824;51.632;4.950;2023-10-13T19:37:37;12.65;;;3.35;;
21330;SDS011;10824;51.632;4.950;2023-10-13T19:40:25;7.65;;;2.63;;
21330;SDS011;10824;51.632;4.950;2023-10-13T19:43:15;10.05;;;2.97;;
21330;SDS011;10824;51.632;4.950;2023-10-13T19:45:50;10.43;;;3.45;;
21330;SDS011;10824;51.632;4.950;2023-10-13T19:52:09;6.30;;;3.25;;
21330;SDS011;10824;51.632;4.950;2023-10-13T19:55:00;12.68;;;4.05;;
21330;SDS011;10824;51.632;4.950;2023-10-13T19:57:38;6.30;;;2.17;;
21330;SDS011;10824;51.632;4.950;2023-10-13T20:00:30;9.63;;;3.13;;
21330;SDS011;10824;51.632;4.950;2023-10-13T20:03:47;12.38;;;3.45;;
21330;SDS011;10824;51.632;4.950;2023-10-13T20:07:09;9.43;;;4.38;;
21330;SDS011;10824;51.632;4.950;2023-10-13T20:10:09;9.23;;;3.72;;
21330;SDS011;10824;51.632;4.950;2023-10-13T20:13:31;8.90;;;4.68;;
21330;SDS011;10824;51.632;4.950;2023-10-13T20:17:05;7.30;;;2.70;;
21330;SDS011;10824;51.632;4.950;2023-10-13T20:23:12;11.02;;;3.45;;
21330;SDS011;10824;51.632;4.950;2023-10-13T20:25:56;9.18;;;3.10;;
21330;SDS011;10824;51.632;4.950;2023-10-13T20:28:50;13.82;;;5.25;;
21330;SDS011;10824;51.632;4.950;2023-10-13T20:31:42;8.30;;;3.88;;
21330;SDS011;10824;51.632;4.950;2023-10-13T20:34:38;11.77;;;3.80;;
21330;SDS011;10824;51.632;4.950;2023-10-13T20:37:45;11.70;;;3.83;;
21330;SDS011;10824;51.632;4.950;2023-10-13T20:40:39;9.32;;;4.00;;
21330;SDS011;10824;51.632;4.950;2023-10-13T20:43:50;11.80;;;4.15;;
21330;SDS011;10824;51.632;4.950;2023-10-13T20:54:32;7.50;;;3.42;;
21330;SDS011;10824;51.632;4.950;2023-10-13T20:57:59;8.23;;;3.40;;
21330;SDS011;10824;51.632;4.950;2023-10-13T21:01:11;7.40;;;2.80;;
21330;SDS011;10824;51.632;4.950;2023-10-13T21:03:49;2.35;;;1.63;;
21330;SDS011;10824;51.632;4.950;2023-10-13T21:06:21;3.05;;;1.67;;
21330;SDS011;10824;51.632;4.950;2023-10-13T21:08:58;5.75;;;0.90;;
21330;SDS011;10824;51.632;4.950;2023-10-13T21:11:34;1.23;;;0.70;;
21330;SDS011;10824;51.632;4.950;2023-10-13T21:14:21;2.95;;;0.90;;
21330;SDS011;10824;51.632;4.950;2023-10-13T21:16:53;1.27;;;0.70;;
21330;SDS011;10824;51.632;4.950;2023-10-13T21:19:30;1.40;;;0.80;;
21330;SDS011;10824;51.632;4.950;2023-10-13T21:25:28;4.38;;;1.10;;
21330;SDS011;10824;51.632;4.950;2023-10-13T21:28:49;2.03;;;1.27;;
21330;SDS011;10824;51.632;4.950;2023-10-13T21:32:08;2.67;;;1.88;;
21330;SDS011;10824;51.632;4.950;2023-10-13T21:35:39;3.70;;;1.30;;
21330;SDS011;10824;51.632;4.950;2023-10-13T21:38:40;4.20;;;1.42;;
21330;SDS011;10824;51.632;4.950;2023-10-13T21:44:36;4.45;;;1.58;;
21330;SDS011;10824;51.632;4.950;2023-10-13T21:47:11;3.78;;;1.30;;
21330;SDS011;10824;51.632;4.950;2023-10-13T21:50:00;4.72;;;1.13;;
21330;SDS011;10824;51.632;4.950;2023-10-13T21:52:45;11.32;;;2.53;;
21330;SDS011;10824;51.632;4.950;2023-10-13T21:55:50;8.55;;;3.50;;
21330;SDS011;10824;51.632;4.950;2023-10-13T21:58:59;5.20;;;2.58;;
21330;SDS011;10824;51.632;4.950;2023-10-13T22:02:14;4.68;;;2.17;;
21330;SDS011;10824;51.632;4.950;2023-10-13T22:05:06;5.65;;;2.13;;
21330;SDS011;10824;51.632;4.950;2023-10-13T22:11:52;7.22;;;3.63;;
21330;SDS011;10824;51.632;4.950;2023-10-13T23:27:16;0.20;;;0.20;;
21330;SDS011;10824;51.632;4.950;2023-10-13T23:30:29;0.22;;;0.22;;
21330;SDS011;10824;51.632;4.950;2023-10-13T23:33:19;1.17;;;0.40;;
21330;SDS011;10824;51.632;4.950;2023-10-13T23:36:01;0.68;;;0.50;;
21330;SDS011;10824;51.632;4.950;2023-10-13T23:43:04;0.50;;;0.40;;
21330;SDS011;10824;51.632;4.950;2023-10-13T23:45:51;0.70;;;0.20;;
21330;SDS011;10824;51.632;4.950;2023-10-13T23:48:31;1.00;;;0.28;;
21330;SDS011;10824;51.632;4.950;2023-10-13T23:51:01;2.00;;;0.32;;
21330;SDS011;10824;51.632;4.950;2023-10-13T23:53:35;1.55;;;0.20;;
21330;SDS011;10824;51.632;4.950;2023-10-13T23:56:13;1.33;;;0.57;;
21330;SDS011;10824;51.632;4.950;2023-10-13T23:58:45;0.40;;;0.30;;
